createdAt,value
2019-01-06T00:04:40.356Z,102107.50
2019-01-06T00:09:44.404Z,102099.66
2019-01-06T00:14:48.470Z,102108.20
2019-01-06T00:19:52.532Z,102109.41
2019-01-06T00:24:56.596Z,102111.07
2019-01-06T00:30:00.619Z,102115.00
2019-01-06T00:35:04.715Z,102114.01
2019-01-06T00:40:09.044Z,102120.20
2019-01-06T00:45:22.199Z,102126.45
2019-01-06T00:50:26.221Z,102117.33
2019-01-06T00:55:30.215Z,102127.20
2019-01-06T01:00:34.555Z,102119.68
2019-01-06T01:05:38.696Z,102126.11
2019-01-06T01:10:42.989Z,102127.66
2019-01-06T01:15:47.021Z,102129.94
2019-01-06T01:20:51.060Z,102141.13
2019-01-06T01:25:55.099Z,102150.80
2019-01-06T01:30:59.171Z,102155.78
2019-01-06T01:36:03.226Z,102168.62
2019-01-06T01:41:07.241Z,102167.75
2019-01-06T01:46:11.295Z,102164.01
2019-01-06T01:51:15.342Z,102166.06
2019-01-06T01:56:19.355Z,102158.97
2019-01-06T02:01:23.416Z,102164.66
2019-01-06T02:06:27.736Z,102169.42
2019-01-06T02:11:31.758Z,102168.08
2019-01-06T02:16:35.848Z,102165.09
2019-01-06T02:21:40.165Z,102176.45
2019-01-06T02:26:44.525Z,102175.38
2019-01-06T02:31:48.835Z,102187.53
2019-01-06T02:36:52.905Z,102188.25
2019-01-06T02:41:57.044Z,102195.30
2019-01-06T02:47:01.147Z,102197.88
2019-01-06T02:52:05.190Z,102204.92
2019-01-06T02:57:09.268Z,102204.96
2019-01-06T03:02:13.279Z,102211.25
2019-01-06T03:07:17.289Z,102225.66
2019-01-06T03:12:21.358Z,102221.98
2019-01-06T03:17:25.434Z,102223.56
2019-01-06T03:22:29.484Z,102212.55
2019-01-06T03:27:33.542Z,102209.22
2019-01-06T03:32:37.596Z,102209.68
2019-01-06T03:37:41.631Z,102214.89
2019-01-06T03:42:45.927Z,102220.93
2019-01-06T03:47:50.055Z,102217.77
2019-01-06T03:52:54.654Z,102225.22
2019-01-06T03:57:58.672Z,102232.49
2019-01-06T04:03:03.223Z,102230.80
2019-01-06T04:08:07.251Z,102227.42
2019-01-06T04:13:11.300Z,102236.19
2019-01-06T04:18:15.606Z,102242.17
2019-01-06T04:23:19.857Z,102244.89
2019-01-06T04:28:23.888Z,102244.60
2019-01-06T04:33:27.925Z,102244.61
2019-01-06T04:38:32.002Z,102232.67
2019-01-06T04:43:36.082Z,102229.34
2019-01-06T04:48:40.155Z,102234.45
2019-01-06T04:53:44.209Z,102236.70
2019-01-06T04:58:48.251Z,102237.09
2019-01-06T05:03:52.322Z,102244.39
2019-01-06T05:08:56.354Z,102251.45
2019-01-06T05:14:00.417Z,102249.61
2019-01-06T05:19:04.526Z,102247.27
2019-01-06T05:24:08.573Z,102254.20
2019-01-06T05:29:13.011Z,102253.10
2019-01-06T05:34:17.322Z,102257.92
2019-01-06T05:39:21.396Z,102271.81
2019-01-06T05:44:25.463Z,102266.30
2019-01-06T05:49:29.496Z,102275.08
2019-01-06T05:54:33.990Z,102277.85
2019-01-06T05:59:38.283Z,102286.09
2019-01-06T06:04:42.324Z,102293.84
2019-01-06T06:09:46.635Z,102291.43
2019-01-06T06:14:50.711Z,102312.70
2019-01-06T06:19:54.787Z,102317.12
2019-01-06T06:25:00.555Z,102320.00
2019-01-06T06:30:05.085Z,102322.80
2019-01-06T06:35:09.425Z,102326.48
2019-01-06T06:40:13.514Z,102329.11
2019-01-06T06:45:17.548Z,102334.73
2019-01-06T06:50:21.596Z,102340.87
2019-01-06T06:55:25.890Z,102357.22
2019-01-06T07:00:45.404Z,102342.41
2019-01-06T07:05:49.419Z,102355.72
2019-01-06T07:10:53.443Z,102360.31
2019-01-06T07:15:57.575Z,102359.37
2019-01-06T07:21:01.904Z,102367.34
2019-01-06T07:26:06.240Z,102371.48
2019-01-06T07:31:10.272Z,102376.52
2019-01-06T07:36:14.395Z,102384.86
2019-01-06T07:41:18.470Z,102394.19
2019-01-06T07:46:22.527Z,102396.00
2019-01-06T07:51:26.591Z,102396.03
2019-01-06T07:56:30.641Z,102385.17
2019-01-06T08:01:34.674Z,102394.38
2019-01-06T08:06:40.409Z,102400.88
2019-01-06T08:11:44.529Z,102405.55
2019-01-06T08:16:48.603Z,102411.47
2019-01-06T08:21:52.635Z,102428.74
2019-01-06T08:26:56.926Z,102426.52
2019-01-06T08:32:00.985Z,102434.38
2019-01-06T08:37:05.039Z,102438.77
2019-01-06T08:42:09.042Z,102436.80
2019-01-06T08:47:13.104Z,102435.28
2019-01-06T08:52:17.244Z,102435.73
2019-01-06T08:57:21.276Z,102440.91
2019-01-06T09:02:25.311Z,102440.58
2019-01-06T09:07:29.633Z,102446.27
2019-01-06T09:12:33.725Z,102436.95
2019-01-06T09:17:37.821Z,102433.67
2019-01-06T09:22:41.952Z,102431.41
2019-01-06T09:27:46.019Z,102431.81
2019-01-06T09:32:50.054Z,102435.75
2019-01-06T09:37:54.115Z,102444.59
2019-01-06T09:42:58.148Z,102438.05
2019-01-06T09:48:03.000Z,102437.97
2019-01-06T09:53:07.131Z,102433.52
2019-01-06T09:58:11.162Z,102436.77
2019-01-06T10:03:15.209Z,102435.66
2019-01-06T10:08:19.244Z,102448.58
2019-01-06T10:13:23.563Z,102437.75
2019-01-06T10:18:27.574Z,102430.34
2019-01-06T10:23:31.657Z,102428.02
2019-01-06T10:28:35.695Z,102432.14
2019-01-06T10:33:41.204Z,102441.72
2019-01-06T10:38:45.312Z,102445.05
2019-01-06T10:43:49.665Z,102437.36
2019-01-06T10:48:53.712Z,102438.27
2019-01-06T10:53:58.122Z,102449.54
2019-01-06T10:59:02.155Z,102445.21
2019-01-06T11:04:06.207Z,102445.17
2019-01-06T11:09:10.244Z,102442.48
2019-01-06T11:14:14.297Z,102441.19
2019-01-06T11:19:18.332Z,102429.02
2019-01-06T11:24:22.397Z,102440.76
2019-01-06T11:29:26.495Z,102431.67
2019-01-06T11:34:30.546Z,102426.81
2019-01-06T11:39:34.604Z,102422.10
2019-01-06T11:44:38.681Z,102420.79
2019-01-06T11:49:42.714Z,102420.66
2019-01-06T11:54:46.921Z,102415.59
2019-01-06T11:59:50.977Z,102406.55
2019-01-06T12:04:55.003Z,102411.38
2019-01-06T12:09:59.156Z,102411.96
2019-01-06T12:15:04.855Z,102421.19
2019-01-06T12:20:08.919Z,102428.89
2019-01-06T12:25:12.977Z,102429.16
2019-01-06T12:30:18.085Z,102427.56
2019-01-06T12:35:22.159Z,102415.59
2019-01-06T12:40:26.253Z,102422.08
2019-01-06T12:45:30.329Z,102425.23
2019-01-06T12:50:34.416Z,102424.95
2019-01-06T12:55:38.699Z,102437.44
2019-01-06T13:00:42.743Z,102445.14
2019-01-06T13:05:46.832Z,102439.63
2019-01-06T13:10:50.884Z,102444.39
2019-01-06T13:15:55.142Z,102449.02
2019-01-06T13:20:59.393Z,102454.57
2019-01-06T13:26:03.443Z,102450.80
2019-01-06T13:31:07.444Z,102450.34
2019-01-06T13:36:11.817Z,102451.66
2019-01-06T13:41:15.899Z,102454.56
2019-01-06T13:46:37.964Z,102452.95
2019-01-06T13:51:41.996Z,102462.20
2019-01-06T13:56:46.338Z,102463.09
2019-01-06T14:01:50.378Z,102459.89
2019-01-06T14:06:54.572Z,102464.39
2019-01-06T14:11:58.873Z,102464.77
2019-01-06T14:17:02.893Z,102471.72
2019-01-06T14:22:07.042Z,102469.46
2019-01-06T14:27:11.195Z,102471.75
2019-01-06T14:32:15.318Z,102472.07
2019-01-06T14:37:19.375Z,102467.81
2019-01-06T14:42:23.437Z,102470.33
2019-01-06T14:47:27.941Z,102471.47
2019-01-06T14:52:31.975Z,102483.59
2019-01-06T14:57:37.043Z,102487.73
2019-01-06T15:02:41.070Z,102486.41
2019-01-06T15:07:45.125Z,102486.02
2019-01-06T15:12:49.179Z,102493.09
2019-01-06T15:17:53.220Z,102489.36
2019-01-06T15:22:57.293Z,102497.86
2019-01-06T15:28:01.388Z,102501.20
2019-01-06T15:33:05.453Z,102504.02
2019-01-06T15:38:09.480Z,102509.53
2019-01-06T15:43:13.560Z,102507.87
2019-01-06T15:48:17.579Z,102510.45
2019-01-06T15:53:21.734Z,102512.25
2019-01-06T15:58:43.393Z,102513.50
2019-01-06T16:03:47.449Z,102507.41
2019-01-06T16:08:54.723Z,102508.27
2019-01-06T16:13:57.453Z,102508.27
2019-01-06T16:19:01.450Z,102517.99
2019-01-06T16:24:05.511Z,102517.06
2019-01-06T16:29:09.519Z,102521.50
2019-01-06T16:34:13.543Z,102525.23
2019-01-06T16:39:17.603Z,102514.88
2019-01-06T16:44:21.721Z,102520.23
2019-01-06T16:49:25.748Z,102522.25
2019-01-06T16:54:29.752Z,102517.19
2019-01-06T16:59:33.830Z,102512.23
2019-01-06T17:04:37.905Z,102516.72
2019-01-06T17:09:42.227Z,102520.52
2019-01-06T17:14:46.365Z,102529.02
2019-01-06T17:19:50.425Z,102536.16
2019-01-06T17:24:55.293Z,102540.67
2019-01-06T17:29:59.593Z,102539.19
2019-01-06T17:35:03.654Z,102533.84
2019-01-06T17:40:08.373Z,102532.95
2019-01-06T17:45:12.570Z,102537.16
2019-01-06T17:50:16.543Z,102536.52
2019-01-06T17:55:20.628Z,102539.69
2019-01-06T18:00:24.651Z,102536.09
2019-01-06T18:05:28.698Z,102536.28
2019-01-06T18:10:32.829Z,102533.98
2019-01-06T18:15:36.889Z,102543.53
2019-01-06T18:20:40.924Z,102546.00
2019-01-06T18:25:45.254Z,102550.17
2019-01-06T18:30:49.486Z,102553.03
2019-01-06T18:35:53.632Z,102552.23
2019-01-06T18:40:57.712Z,102551.67
2019-01-06T18:46:02.573Z,102558.23
2019-01-06T18:51:06.635Z,102556.27
2019-01-06T18:56:10.715Z,102556.33
2019-01-06T19:01:14.822Z,102555.41
2019-01-06T19:06:18.868Z,102555.01
2019-01-06T19:11:22.915Z,102550.48
2019-01-06T19:16:26.979Z,102562.02
2019-01-06T19:21:31.086Z,102557.81
2019-01-06T19:26:35.143Z,102561.31
2019-01-06T19:31:39.540Z,102560.45
2019-01-06T19:36:43.589Z,102561.58
2019-01-06T19:41:47.696Z,102557.09
2019-01-06T19:46:51.849Z,102562.78
2019-01-06T19:51:55.908Z,102559.94
2019-01-06T19:57:04.875Z,102561.31
2019-01-06T20:02:09.888Z,102565.53
2019-01-06T20:07:14.649Z,102558.42
2019-01-06T20:12:19.453Z,102556.13
2019-01-06T20:17:26.146Z,102554.47
2019-01-06T20:22:31.779Z,102566.60
2019-01-06T20:27:37.348Z,102568.32
2019-01-06T20:32:52.377Z,102569.93
2019-01-06T20:37:57.674Z,102568.92
2019-01-06T20:43:05.910Z,102550.34
2019-01-06T20:48:11.922Z,102552.23
2019-01-06T20:53:23.971Z,102545.58
2019-01-06T20:58:36.734Z,102559.62
2019-01-06T21:03:55.122Z,102547.75
2019-01-06T21:09:07.860Z,102542.22
2019-01-06T21:14:13.148Z,102537.58
2019-01-06T21:19:17.668Z,102541.22
2019-01-06T21:24:22.103Z,102544.37
2019-01-06T21:29:26.376Z,102546.95
2019-01-06T21:34:31.489Z,102552.54
2019-01-06T21:39:37.300Z,102546.95
2019-01-06T21:44:41.791Z,102554.20
2019-01-06T21:49:46.540Z,102556.58
2019-01-06T21:54:50.718Z,102550.91
2019-01-06T21:59:55.170Z,102554.20
2019-01-06T22:04:59.537Z,102552.63
2019-01-06T22:10:04.495Z,102546.81
2019-01-06T22:15:08.688Z,102550.45
2019-01-06T22:20:13.623Z,102544.03
2019-01-06T22:25:18.498Z,102545.59
2019-01-06T22:30:23.440Z,102548.44
2019-01-06T22:35:29.937Z,102544.38
2019-01-06T22:40:34.374Z,102540.34
2019-01-06T22:45:39.069Z,102535.39
2019-01-06T22:50:43.105Z,102537.58
2019-01-06T22:55:47.468Z,102537.12
2019-01-06T23:00:53.374Z,102542.03
2019-01-06T23:05:57.964Z,102546.18
2019-01-06T23:11:02.096Z,102542.82
2019-01-06T23:16:06.381Z,102545.19
2019-01-06T23:21:10.433Z,102541.09
2019-01-06T23:26:14.513Z,102534.13
2019-01-06T23:31:18.722Z,102530.72
2019-01-06T23:36:23.644Z,102536.37
2019-01-06T23:41:28.158Z,102535.42
2019-01-06T23:46:32.470Z,102528.80
2019-01-06T23:51:37.316Z,102531.44
2019-01-06T23:56:41.390Z,102533.39
